Terminal Aerodrome Forecast
Issued by NWS

Home | Current Version | Previous Version | Text Only | Print | Product List | Glossary On
Versions: 1 2 3 4 5 6 7 8 9 10 11 12 13 14 15 16 17 18 19
000
FTUS43 KSGF 261700 RRA
TAFBBG
TAF
KBBG 261738Z 2618/2718 35010G16KT P6SM FEW030
     FM270600 VRB03KT P6SM OVC060 PROB30 2710/2715 -RA OVC030
     FM271500 01008KT P6SM BKN030=

USA.gov is the U.S. government's official web portal to all federal, state and local government web resources and services.